createdAt,value
2022-08-25T00:01:36.744Z,100.00
2022-08-25T00:04:09.271Z,100.00
2022-08-25T00:06:37.714Z,100.00
2022-08-25T00:09:06.055Z,100.00
2022-08-25T00:11:37.226Z,100.00
2022-08-25T00:14:09.645Z,100.00
2022-08-25T00:16:37.853Z,100.00
2022-08-25T00:19:08.499Z,100.00
2022-08-25T00:21:36.878Z,100.00
2022-08-25T00:24:06.542Z,100.00
2022-08-25T00:26:36.335Z,100.00
2022-08-25T00:29:05.711Z,100.00
2022-08-25T00:31:38.879Z,100.00
2022-08-25T00:34:09.403Z,100.00
2022-08-25T00:36:37.804Z,100.00
2022-08-25T00:39:06.324Z,100.00
2022-08-25T00:41:36.441Z,100.00
2022-08-25T00:44:07.226Z,100.00
2022-08-25T00:46:38.371Z,100.00
2022-08-25T00:49:14.686Z,100.00
2022-08-25T00:51:57.044Z,100.00
2022-08-25T00:54:28.551Z,100.00
2022-08-25T00:57:01.279Z,100.00
2022-08-25T00:59:31.246Z,100.00
2022-08-25T01:02:00.744Z,100.00
2022-08-25T01:04:29.005Z,100.00
2022-08-25T01:06:59.412Z,100.00
2022-08-25T01:09:28.633Z,100.00
2022-08-25T01:11:58.410Z,100.00
2022-08-25T01:14:28.145Z,100.00
2022-08-25T01:16:58.949Z,100.00
2022-08-25T01:19:28.863Z,100.00
2022-08-25T01:21:58.430Z,100.00
2022-08-25T01:24:36.713Z,100.00
2022-08-25T01:27:05.472Z,100.00
2022-08-25T01:29:34.205Z,100.00
2022-08-25T01:32:05.668Z,100.00
2022-08-25T01:34:37.533Z,100.00
2022-08-25T01:37:07.509Z,100.00
2022-08-25T01:39:36.857Z,100.00
2022-08-25T01:42:20.983Z,100.00
2022-08-25T01:44:49.483Z,100.00
2022-08-25T01:47:17.780Z,100.00
2022-08-25T01:49:46.256Z,100.00
2022-08-25T01:52:20.469Z,100.00
2022-08-25T01:54:49.694Z,100.00
2022-08-25T01:57:17.874Z,100.00
2022-08-25T01:59:46.268Z,100.00
2022-08-25T02:02:14.849Z,100.00
2022-08-25T02:04:47.843Z,100.00
2022-08-25T02:07:17.798Z,100.00
2022-08-25T02:09:45.947Z,100.00
2022-08-25T02:12:14.469Z,100.00
2022-08-25T02:14:42.830Z,100.00
2022-08-25T02:17:11.070Z,100.00
2022-08-25T02:19:39.123Z,100.00
2022-08-25T02:22:07.594Z,100.00
2022-08-25T02:24:38.045Z,100.00
2022-08-25T02:27:06.640Z,100.00
2022-08-25T02:29:34.962Z,100.00
2022-08-25T02:32:03.199Z,100.00
2022-08-25T02:34:31.541Z,100.00
2022-08-25T02:36:59.717Z,100.00
2022-08-25T02:39:27.844Z,100.00
2022-08-25T02:41:57.405Z,100.00
2022-08-25T02:44:25.562Z,100.00
2022-08-25T02:46:53.641Z,100.00
2022-08-25T02:49:21.797Z,100.00
2022-08-25T02:51:49.963Z,100.00
2022-08-25T02:54:18.075Z,100.00
2022-08-25T02:56:46.114Z,100.00
2022-08-25T02:59:15.955Z,100.00
2022-08-25T03:01:44.115Z,100.00
2022-08-25T03:04:12.419Z,100.00
2022-08-25T03:06:41.979Z,100.00
2022-08-25T03:09:10.496Z,100.00
2022-08-25T03:11:40.006Z,100.00
2022-08-25T03:14:09.898Z,100.00
2022-08-25T03:16:40.240Z,100.00
2022-08-25T03:19:09.861Z,100.00
2022-08-25T03:21:39.210Z,100.00
2022-08-25T03:24:08.108Z,100.00
2022-08-25T03:26:53.815Z,100.00
2022-08-25T03:29:22.574Z,100.00
2022-08-25T03:31:53.360Z,100.00
2022-08-25T03:34:23.042Z,100.00
2022-08-25T03:36:53.048Z,100.00
2022-08-25T03:39:26.044Z,100.00
2022-08-25T03:41:55.104Z,100.00
2022-08-25T03:44:23.791Z,100.00
2022-08-25T03:46:54.075Z,100.00
2022-08-25T03:49:24.553Z,100.00
2022-08-25T03:51:54.881Z,100.00
2022-08-25T03:54:25.938Z,100.00
2022-08-25T03:56:55.058Z,100.00
2022-08-25T03:59:23.179Z,100.00
2022-08-25T04:01:55.422Z,100.00
2022-08-25T04:04:24.300Z,100.00
2022-08-25T04:06:53.053Z,100.00
2022-08-25T04:09:21.312Z,100.00
2022-08-25T04:11:53.010Z,100.00
2022-08-25T04:14:23.857Z,100.00
2022-08-25T04:16:54.478Z,100.00
2022-08-25T04:19:23.583Z,100.00
2022-08-25T04:21:53.512Z,100.00
2022-08-25T04:24:24.952Z,100.00
2022-08-25T04:26:53.871Z,100.00
2022-08-25T04:29:24.610Z,100.00
2022-08-25T04:31:55.077Z,100.00
2022-08-25T04:34:29.543Z,100.00
2022-08-25T04:37:00.795Z,100.00
2022-08-25T04:39:29.049Z,100.00
2022-08-25T04:41:57.520Z,100.00
2022-08-25T04:44:25.646Z,100.00
2022-08-25T04:46:56.431Z,100.00
2022-08-25T04:49:24.472Z,100.00
2022-08-25T04:51:53.828Z,100.00
2022-08-25T04:54:22.945Z,100.00
2022-08-25T04:56:54.452Z,100.00
2022-08-25T04:59:30.138Z,100.00
2022-08-25T05:02:02.771Z,100.00
2022-08-25T05:04:31.954Z,100.00
2022-08-25T05:07:01.413Z,100.00
2022-08-25T05:09:32.635Z,100.00
2022-08-25T05:12:02.288Z,100.00
2022-08-25T05:14:31.661Z,100.00
2022-08-25T05:17:01.717Z,100.00
2022-08-25T05:19:30.244Z,100.00
2022-08-25T05:21:58.462Z,100.00
2022-08-25T05:24:28.257Z,100.00
2022-08-25T05:26:56.521Z,100.00
2022-08-25T05:29:25.023Z,100.00
2022-08-25T05:31:54.138Z,100.00
2022-08-25T05:34:25.460Z,100.00
2022-08-25T05:36:54.682Z,100.00
2022-08-25T05:39:22.890Z,100.00
2022-08-25T05:41:52.283Z,100.00
2022-08-25T05:44:21.472Z,100.00
2022-08-25T05:46:51.439Z,100.00
2022-08-25T05:49:20.025Z,100.00
2022-08-25T05:51:50.018Z,100.00
2022-08-25T05:54:18.289Z,100.00
2022-08-25T05:56:46.863Z,100.00
2022-08-25T05:59:15.453Z,100.00
2022-08-25T06:02:01.253Z,100.00
2022-08-25T06:04:29.444Z,99.92
2022-08-25T06:06:59.080Z,100.00
2022-08-25T06:09:27.422Z,99.89
2022-08-25T06:11:56.392Z,98.03
2022-08-25T06:14:25.080Z,96.86
2022-08-25T06:16:53.706Z,95.72
2022-08-25T06:19:23.566Z,96.17
2022-08-25T06:21:55.531Z,94.75
2022-08-25T06:24:26.610Z,93.51
2022-08-25T06:26:54.885Z,92.34
2022-08-25T06:29:23.236Z,90.78
2022-08-25T06:31:51.594Z,91.81
2022-08-25T06:34:24.073Z,91.59
2022-08-25T06:36:52.958Z,92.19
2022-08-25T06:39:21.319Z,91.07
2022-08-25T06:41:54.110Z,90.16
2022-08-25T06:44:22.859Z,91.36
2022-08-25T06:46:51.573Z,89.54
2022-08-25T06:49:19.800Z,90.40
2022-08-25T06:51:48.303Z,89.61
2022-08-25T06:54:16.672Z,91.38
2022-08-25T06:56:44.910Z,88.26
2022-08-25T06:59:14.689Z,89.93
2022-08-25T07:01:43.789Z,89.12
2022-08-25T07:04:13.279Z,88.28
2022-08-25T07:06:43.229Z,88.61
2022-08-25T07:09:12.722Z,88.65
2022-08-25T07:11:41.135Z,89.04
2022-08-25T07:14:12.338Z,88.98
2022-08-25T07:16:48.552Z,88.88
2022-08-25T07:19:20.910Z,87.24
2022-08-25T07:21:51.903Z,87.33
2022-08-25T07:24:21.176Z,86.08
2022-08-25T07:26:49.657Z,84.83
2022-08-25T07:29:20.352Z,84.69
2022-08-25T07:32:02.747Z,84.21
2022-08-25T07:34:51.938Z,84.94
2022-08-25T07:40:12.504Z,83.91
2022-08-25T07:42:41.115Z,83.95
2022-08-25T07:45:11.137Z,80.71
2022-08-25T07:47:40.918Z,83.04
2022-08-25T07:50:11.831Z,82.40
2022-08-25T07:52:40.322Z,82.67
2022-08-25T07:55:11.199Z,81.49
2022-08-25T07:57:40.933Z,80.06
2022-08-25T08:00:10.700Z,79.64
2022-08-25T08:02:41.452Z,79.81
2022-08-25T08:05:12.149Z,77.94
2022-08-25T08:07:43.192Z,78.57
2022-08-25T08:10:47.943Z,76.94
2022-08-25T08:13:03.909Z,78.05
2022-08-25T08:15:35.427Z,78.21
2022-08-25T08:18:07.267Z,79.74
2022-08-25T08:20:42.672Z,77.84
2022-08-25T08:23:11.975Z,76.69
2022-08-25T08:25:40.141Z,71.60
2022-08-25T08:28:08.556Z,69.23
2022-08-25T08:30:39.176Z,71.79
2022-08-25T08:33:11.279Z,70.44
2022-08-25T08:35:39.803Z,69.02
2022-08-25T08:38:14.812Z,68.54
2022-08-25T08:41:10.949Z,67.69
2022-08-25T08:43:40.809Z,64.19
2022-08-25T08:46:09.142Z,65.71
2022-08-25T08:49:01.737Z,64.11
2022-08-25T08:51:35.035Z,63.54
2022-08-25T08:54:14.897Z,62.70
2022-08-25T08:56:48.224Z,60.87
2022-08-25T08:59:20.103Z,61.94
2022-08-25T09:01:59.122Z,61.25
2022-08-25T09:04:36.220Z,61.35
2022-08-25T09:07:09.185Z,60.75
2022-08-25T09:09:42.080Z,58.80
2022-08-25T09:12:17.155Z,57.66
2022-08-25T09:15:12.913Z,58.31
2022-08-25T09:18:06.661Z,57.49
2022-08-25T09:20:54.832Z,54.77
2022-08-25T09:23:37.155Z,54.85
2022-08-25T09:26:22.117Z,54.64
2022-08-25T09:28:52.397Z,53.84
2022-08-25T09:31:29.187Z,51.06
2022-08-25T09:33:59.702Z,51.11
2022-08-25T09:36:30.707Z,51.85
2022-08-25T09:39:01.355Z,51.80
2022-08-25T09:41:47.804Z,52.63
2022-08-25T09:44:23.380Z,48.30
2022-08-25T09:47:02.316Z,48.59
2022-08-25T09:49:37.682Z,49.15
2022-08-25T09:52:35.658Z,49.89
2022-08-25T09:55:34.334Z,49.28
2022-08-25T09:58:22.321Z,49.50
2022-08-25T10:01:05.103Z,48.00
2022-08-25T10:03:36.534Z,47.74
2022-08-25T10:06:12.901Z,46.44
2022-08-25T10:08:56.323Z,46.04
2022-08-25T10:11:38.529Z,44.72
2022-08-25T10:14:23.556Z,44.27
2022-08-25T10:16:54.599Z,44.86
2022-08-25T10:19:28.792Z,46.28
2022-08-25T10:22:10.839Z,46.10
2022-08-25T10:24:44.105Z,45.84
2022-08-25T10:27:23.553Z,45.12
2022-08-25T10:30:09.585Z,44.81
2022-08-25T10:32:52.233Z,43.86
2022-08-25T10:35:28.244Z,43.53
2022-08-25T10:38:09.220Z,43.30
2022-08-25T10:40:45.944Z,44.26
2022-08-25T10:43:26.559Z,43.36
2022-08-25T10:46:06.414Z,42.94
2022-08-25T10:48:52.770Z,42.98
2022-08-25T10:51:56.504Z,42.56
2022-08-25T10:54:46.045Z,41.90
2022-08-25T10:57:24.757Z,42.25
2022-08-25T11:00:02.889Z,43.33
2022-08-25T11:02:58.911Z,42.74
2022-08-25T11:05:32.757Z,42.43
2022-08-25T11:08:09.518Z,42.99
2022-08-25T11:10:48.555Z,40.90
2022-08-25T11:13:26.179Z,40.71
2022-08-25T11:16:17.601Z,40.84
2022-08-25T11:18:56.236Z,40.55
2022-08-25T11:21:28.654Z,40.11
2022-08-25T11:24:05.844Z,40.61
2022-08-25T11:26:38.542Z,41.07
2022-08-25T11:29:16.659Z,41.57
2022-08-25T11:31:53.045Z,42.39
2022-08-25T11:34:23.708Z,43.31
2022-08-25T11:36:55.721Z,41.31
2022-08-25T11:39:37.076Z,41.07
2022-08-25T11:42:18.091Z,41.12
2022-08-25T11:44:55.721Z,40.42
2022-08-25T11:48:01.655Z,38.72
2022-08-25T11:50:35.187Z,39.75
2022-08-25T11:53:23.610Z,38.10
2022-08-25T11:56:02.579Z,37.25
2022-08-25T11:58:35.336Z,36.68
2022-08-25T12:01:06.726Z,38.51
2022-08-25T12:03:53.444Z,38.11
2022-08-25T12:06:27.648Z,36.98
2022-08-25T12:09:17.839Z,36.91
2022-08-25T12:11:58.335Z,36.93
2022-08-25T12:14:48.125Z,36.32
2022-08-25T12:17:29.658Z,37.20
2022-08-25T12:20:01.847Z,36.32
2022-08-25T12:22:58.421Z,35.99
2022-08-25T12:25:48.955Z,36.08
2022-08-25T12:28:49.230Z,35.98
2022-08-25T12:31:48.301Z,36.42
2022-08-25T12:34:35.134Z,36.17
2022-08-25T12:37:12.269Z,36.91
2022-08-25T12:39:46.796Z,36.89
2022-08-25T12:42:29.503Z,36.20
2022-08-25T12:45:15.072Z,36.32
2022-08-25T12:47:47.595Z,36.48
2022-08-25T12:50:40.246Z,37.51
2022-08-25T12:53:13.554Z,37.70
2022-08-25T12:56:05.402Z,37.10
2022-08-25T12:58:59.818Z,38.70
2022-08-25T13:01:38.564Z,38.04
2022-08-25T13:04:32.780Z,38.72
2022-08-25T13:07:13.146Z,38.59
2022-08-25T13:10:04.119Z,38.33
2022-08-25T13:12:39.134Z,35.38
2022-08-25T13:15:07.702Z,36.04
2022-08-25T13:17:37.274Z,35.70
2022-08-25T13:20:21.320Z,36.13
2022-08-25T13:22:58.138Z,35.63
2022-08-25T13:25:32.672Z,35.94
2022-08-25T13:28:04.794Z,36.85
2022-08-25T13:30:35.802Z,37.93
2022-08-25T13:33:21.794Z,36.89
2022-08-25T13:36:12.590Z,37.36
2022-08-25T13:38:42.484Z,37.14
2022-08-25T13:41:20.258Z,43.19
2022-08-25T13:43:49.300Z,46.71
2022-08-25T13:46:21.705Z,46.72
2022-08-25T13:48:50.655Z,50.29
2022-08-25T13:51:31.356Z,51.40
2022-08-25T13:54:03.767Z,51.89
2022-08-25T13:56:38.708Z,52.63
2022-08-25T13:59:23.051Z,52.67
2022-08-25T14:01:54.117Z,51.25
2022-08-25T14:04:29.437Z,51.44
2022-08-25T14:07:19.414Z,50.91
2022-08-25T14:09:52.246Z,49.67
2022-08-25T14:12:39.955Z,49.75
2022-08-25T14:15:32.264Z,50.09
2022-08-25T14:18:04.573Z,50.11
2022-08-25T14:20:34.911Z,50.16
2022-08-25T14:23:09.810Z,50.15
2022-08-25T14:25:42.410Z,51.63
2022-08-25T14:28:13.661Z,52.13
2022-08-25T14:30:46.157Z,52.41
2022-08-25T14:33:16.706Z,50.84
2022-08-25T14:35:48.645Z,49.93
2022-08-25T14:38:18.244Z,51.59
2022-08-25T14:40:48.424Z,50.79
2022-08-25T14:43:20.880Z,50.93
2022-08-25T14:45:52.549Z,49.55
2022-08-25T14:48:27.648Z,49.35
2022-08-25T14:50:57.595Z,50.09
2022-08-25T14:53:26.110Z,49.92
2022-08-25T14:55:59.128Z,50.50
2022-08-25T14:58:34.023Z,50.62
2022-08-25T15:01:06.971Z,50.74
2022-08-25T15:03:43.608Z,50.29
2022-08-25T15:06:18.578Z,51.49
2022-08-25T15:09:04.686Z,51.28
2022-08-25T15:11:35.300Z,50.42
2022-08-25T15:14:03.887Z,50.32
2022-08-25T15:16:36.567Z,48.49
2022-08-25T15:19:07.234Z,48.09
2022-08-25T15:21:36.448Z,46.96
2022-08-25T15:24:10.183Z,46.37
2022-08-25T15:26:44.004Z,44.95
2022-08-25T15:29:13.315Z,45.30
2022-08-25T15:31:44.136Z,45.68
2022-08-25T15:34:14.011Z,45.60
2022-08-25T15:36:43.196Z,45.52
2022-08-25T15:39:12.315Z,46.06
2022-08-25T15:41:42.871Z,46.44
2022-08-25T15:44:12.513Z,46.60
2022-08-25T15:46:49.470Z,46.36
2022-08-25T15:49:20.744Z,46.96
2022-08-25T15:51:54.422Z,47.31
2022-08-25T15:54:24.032Z,46.86
2022-08-25T15:56:57.228Z,48.25
2022-08-25T15:59:25.757Z,51.62
2022-08-25T16:01:56.455Z,52.60
2022-08-25T16:04:26.610Z,53.85
2022-08-25T16:06:55.589Z,54.39
2022-08-25T16:09:24.102Z,56.12
2022-08-25T16:11:56.270Z,55.88
2022-08-25T16:14:28.128Z,55.53
2022-08-25T16:16:58.041Z,56.22
2022-08-25T16:19:26.392Z,56.76
2022-08-25T16:21:54.948Z,57.57
2022-08-25T16:24:23.154Z,57.45
2022-08-25T16:26:51.830Z,57.95
2022-08-25T16:29:20.829Z,57.82
2022-08-25T16:31:53.314Z,58.09
2022-08-25T16:34:24.749Z,58.18
2022-08-25T16:36:57.116Z,58.62
2022-08-25T16:39:27.505Z,60.05
2022-08-25T16:41:55.624Z,60.14
2022-08-25T16:44:24.520Z,58.88
2022-08-25T16:46:56.086Z,59.30
2022-08-25T16:49:24.768Z,59.76
2022-08-25T16:51:57.220Z,60.71
2022-08-25T16:54:43.418Z,60.97
2022-08-25T16:57:11.615Z,62.75
2022-08-25T16:59:40.097Z,64.36
2022-08-25T17:02:09.966Z,65.17
2022-08-25T17:04:38.275Z,66.50
2022-08-25T17:07:06.605Z,66.85
2022-08-25T17:09:36.478Z,67.61
2022-08-25T17:12:05.761Z,68.34
2022-08-25T17:14:34.111Z,68.63
2022-08-25T17:17:02.613Z,69.60
2022-08-25T17:19:37.985Z,70.30
2022-08-25T17:22:08.266Z,71.11
2022-08-25T17:24:37.356Z,71.82
2022-08-25T17:27:09.180Z,71.95
2022-08-25T17:29:37.902Z,73.11
2022-08-25T17:32:06.787Z,73.30
2022-08-25T17:34:36.799Z,72.77
2022-08-25T17:37:05.358Z,71.36
2022-08-25T17:39:33.923Z,71.78
2022-08-25T17:42:02.295Z,71.81
2022-08-25T17:44:30.525Z,71.31
2022-08-25T17:46:59.628Z,71.63
2022-08-25T17:49:28.817Z,71.31
2022-08-25T17:51:58.955Z,71.49
2022-08-25T17:54:27.273Z,72.10
2022-08-25T17:56:55.919Z,72.34
2022-08-25T17:59:24.442Z,72.44
2022-08-25T18:01:55.484Z,71.57
2022-08-25T18:04:23.914Z,71.94
2022-08-25T18:06:55.514Z,72.92
2022-08-25T18:09:25.305Z,73.10
2022-08-25T18:11:53.633Z,73.27
2022-08-25T18:14:25.229Z,75.00
2022-08-25T18:16:54.559Z,75.39
2022-08-25T18:19:22.772Z,76.40
2022-08-25T18:21:52.478Z,76.44
2022-08-25T18:24:21.174Z,76.46
2022-08-25T18:26:53.571Z,76.67
2022-08-25T18:29:21.714Z,77.02
2022-08-25T18:31:51.939Z,77.17
2022-08-25T18:34:22.445Z,75.94
2022-08-25T18:36:51.006Z,75.34
2022-08-25T18:39:37.138Z,75.22
2022-08-25T18:42:08.577Z,75.82
2022-08-25T18:44:36.996Z,75.01
2022-08-25T18:47:07.360Z,74.73
2022-08-25T18:49:37.633Z,75.46
2022-08-25T18:52:07.393Z,75.06
2022-08-25T18:54:36.965Z,73.83
2022-08-25T18:57:08.253Z,73.97
2022-08-25T18:59:38.085Z,74.63
2022-08-25T19:02:07.114Z,75.14
2022-08-25T19:04:35.573Z,75.55
2022-08-25T19:07:05.548Z,75.61
2022-08-25T19:09:36.904Z,75.39
2022-08-25T19:12:11.723Z,74.54
2022-08-25T19:14:51.416Z,74.23
2022-08-25T19:17:20.846Z,72.86
2022-08-25T19:19:52.978Z,72.44
2022-08-25T19:22:40.626Z,71.98
2022-08-25T19:25:10.980Z,72.44
2022-08-25T19:27:42.497Z,73.10
2022-08-25T19:30:14.488Z,72.80
2022-08-25T19:32:45.359Z,73.28
2022-08-25T19:35:21.428Z,73.33
2022-08-25T19:37:52.065Z,73.95
2022-08-25T19:40:20.881Z,73.57
2022-08-25T19:42:53.802Z,73.69
2022-08-25T19:45:24.567Z,72.75
2022-08-25T19:47:53.388Z,73.11
2022-08-25T19:50:22.701Z,73.27
2022-08-25T19:52:51.569Z,72.66
2022-08-25T19:55:21.057Z,71.79
2022-08-25T19:57:51.086Z,72.05
2022-08-25T20:00:21.865Z,73.34
2022-08-25T20:02:51.051Z,71.83
2022-08-25T20:05:23.490Z,72.35
2022-08-25T20:07:53.345Z,72.08
2022-08-25T20:10:22.927Z,71.02
2022-08-25T20:12:52.906Z,70.77
2022-08-25T20:15:21.516Z,70.41
2022-08-25T20:17:51.694Z,70.93
2022-08-25T20:20:32.337Z,69.98
2022-08-25T20:23:15.047Z,69.80
2022-08-25T20:25:44.104Z,69.00
2022-08-25T20:28:18.599Z,69.77
2022-08-25T20:30:47.533Z,69.83
2022-08-25T20:33:22.572Z,69.84
2022-08-25T20:35:52.946Z,70.41
2022-08-25T20:38:21.586Z,70.13
2022-08-25T20:40:49.844Z,69.13
2022-08-25T20:43:20.786Z,68.38
2022-08-25T20:45:49.380Z,68.65
2022-08-25T20:48:18.031Z,68.78
2022-08-25T20:50:46.254Z,69.78
2022-08-25T20:53:26.556Z,70.29
2022-08-25T20:55:55.079Z,70.86
2022-08-25T20:58:24.887Z,70.88
2022-08-25T21:00:55.051Z,69.98
2022-08-25T21:03:23.220Z,69.32
2022-08-25T21:05:54.038Z,69.17
2022-08-25T21:08:23.820Z,69.69
2022-08-25T21:10:53.684Z,70.42
2022-08-25T21:13:22.844Z,69.96
2022-08-25T21:15:52.461Z,69.63
2022-08-25T21:18:20.782Z,68.67
2022-08-25T21:20:48.944Z,68.64
2022-08-25T21:23:17.198Z,68.15
2022-08-25T21:25:45.747Z,66.85
2022-08-25T21:28:14.648Z,67.00
2022-08-25T21:30:44.781Z,66.90
2022-08-25T21:33:17.017Z,67.07
2022-08-25T21:35:45.208Z,67.00
2022-08-25T21:38:15.135Z,66.39
2022-08-25T21:40:44.870Z,64.99
2022-08-25T21:43:13.325Z,64.44
2022-08-25T21:45:46.845Z,64.55
2022-08-25T21:48:17.555Z,64.60
2022-08-25T21:50:45.997Z,65.28
2022-08-25T21:53:14.155Z,64.68
2022-08-25T21:55:44.219Z,64.95
2022-08-25T21:58:12.333Z,65.17
2022-08-25T22:00:41.685Z,64.71
2022-08-25T22:03:09.917Z,64.49
2022-08-25T22:05:39.734Z,64.75
2022-08-25T22:08:08.855Z,64.52
2022-08-25T22:10:43.396Z,64.26
2022-08-25T22:13:14.116Z,64.03
2022-08-25T22:15:42.216Z,64.20
2022-08-25T22:18:10.426Z,64.15
2022-08-25T22:20:41.367Z,63.71
2022-08-25T22:23:09.675Z,63.34
2022-08-25T22:25:48.822Z,63.33
2022-08-25T22:28:17.101Z,63.35
2022-08-25T22:30:45.270Z,63.32
2022-08-25T22:33:14.080Z,63.23
2022-08-25T22:35:43.933Z,63.32
2022-08-25T22:38:12.693Z,62.47
2022-08-25T22:40:42.021Z,62.54
2022-08-25T22:43:11.072Z,63.42
2022-08-25T22:45:39.322Z,62.84
2022-08-25T22:48:07.662Z,62.91
2022-08-25T22:50:36.538Z,62.77
2022-08-25T22:53:06.217Z,63.33
2022-08-25T22:55:35.466Z,63.13
2022-08-25T22:58:03.523Z,63.46
2022-08-25T23:00:31.664Z,63.17
2022-08-25T23:02:59.918Z,63.14
2022-08-25T23:05:29.423Z,62.53
2022-08-25T23:07:57.756Z,62.82
2022-08-25T23:10:27.394Z,62.91
2022-08-25T23:12:55.583Z,62.62
2022-08-25T23:15:24.215Z,62.66
2022-08-25T23:17:52.391Z,62.74
2022-08-25T23:20:45.244Z,63.93
2022-08-25T23:23:14.065Z,64.27
2022-08-25T23:25:43.913Z,64.20
2022-08-25T23:28:12.085Z,64.21
2022-08-25T23:30:40.501Z,64.82
2022-08-25T23:33:15.453Z,64.18
2022-08-25T23:35:47.073Z,63.14
2022-08-25T23:38:15.235Z,63.24
2022-08-25T23:40:46.828Z,63.94
2022-08-25T23:43:15.600Z,63.32
2022-08-25T23:45:44.215Z,63.17
2022-08-25T23:48:12.457Z,63.10
2022-08-25T23:50:53.980Z,62.81
2022-08-25T23:53:23.156Z,62.61
2022-08-25T23:55:54.019Z,62.06
2022-08-25T23:58:22.437Z,62.11
